Time;durP1;ratioP1;P1;durP2;ratioP2;P2;SDS_P1;SDS_P2;PMS_P1;PMS_P2;Temp;Humidity;BMP_temperature;BMP_pressure;BME280_temperature;BME280_humidity;BME280_pressure;Samples;Min_cycle;Max_cycle;Signal;HPM_P1;HPM_P2
2022/04/26 03:37:51;;;;;;;2.10;1.90;;;9.60;92.60;;;;;;5101393;28;20196;-40
2022/04/26 03:40:18;;;;;;;4.30;2.17;;;9.60;92.50;;;;;;5110008;28;20207;-39
2022/04/26 03:42:45;;;;;;;2.37;2.17;;;9.60;92.50;;;;;;5110814;28;20199;-42
2022/04/26 03:45:12;;;;;;;3.37;2.00;;;9.60;92.40;;;;;;5109327;28;20296;-38
2022/04/26 03:47:40;;;;;;;1.90;1.80;;;9.60;92.40;;;;;;5110702;28;20199;-42
2022/04/26 03:50:08;;;;;;;1.80;1.70;;;9.60;92.40;;;;;;5103520;28;20193;-37
2022/04/26 03:52:35;;;;;;;1.60;1.50;;;9.60;92.40;;;;;;5110299;28;20203;-39
2022/04/26 03:55:03;;;;;;;2.03;1.93;;;9.60;92.40;;;;;;5109136;28;20690;-37
2022/04/26 03:57:31;;;;;;;1.60;1.50;;;9.60;92.40;;;;;;5110462;28;20200;-39
2022/04/26 03:59:58;;;;;;;1.80;1.70;;;9.60;92.50;;;;;;5109007;28;20206;-41
2022/04/26 04:02:25;;;;;;;1.73;1.63;;;9.60;92.50;;;;;;5110033;28;20631;-37
2022/04/26 04:04:52;;;;;;;1.70;1.60;;;9.60;92.50;;;;;;5097334;28;20208;-41
2022/04/26 04:07:20;;;;;;;1.90;1.50;;;9.60;92.50;;;;;;5110270;28;20216;-40
2022/04/26 04:09:47;;;;;;;1.70;1.60;;;9.70;92.60;;;;;;5095583;28;20275;-37
2022/04/26 04:12:14;;;;;;;2.23;1.70;;;9.70;92.60;;;;;;5110202;28;20207;-37
2022/04/26 04:14:41;;;;;;;1.40;1.30;;;9.70;92.60;;;;;;5109054;28;20194;-37
2022/04/26 04:17:09;;;;;;;1.33;1.30;;;9.70;92.60;;;;;;5109888;28;20201;-37
2022/04/26 04:19:36;;;;;;;1.97;1.40;;;9.70;92.60;;;;;;5106479;28;20313;-38
2022/04/26 04:22:04;;;;;;;1.60;1.50;;;9.50;92.90;;;;;;5110217;28;20278;-38
2022/04/26 04:24:33;;;;;;;1.80;1.70;;;9.70;92.70;;;;;;5109186;28;20341;-40
2022/04/26 04:27:00;;;;;;;2.20;2.00;;;9.70;92.70;;;;;;5105304;28;20208;-41
2022/04/26 04:29:27;;;;;;;1.70;1.60;;;9.70;92.60;;;;;;5110628;28;20252;-40
2022/04/26 04:31:54;;;;;;;1.60;1.50;;;9.80;92.60;;;;;;5107719;28;20636;-41
2022/04/26 04:34:22;;;;;;;1.60;1.50;;;9.80;92.50;;;;;;5110908;28;20540;-40
2022/04/26 04:36:49;;;;;;;1.53;1.43;;;9.80;92.50;;;;;;5113827;28;20233;-38
2022/04/26 04:39:19;;;;;;;1.33;1.23;;;9.80;92.40;;;;;;5113477;28;20197;-39
2022/04/26 04:41:48;;;;;;;1.80;1.10;;;9.80;92.40;;;;;;5113483;28;20616;-39
2022/04/26 04:44:15;;;;;;;1.50;1.40;;;9.80;92.70;;;;;;5113099;28;20192;-38
2022/04/26 04:46:42;;;;;;;1.40;1.30;;;9.90;92.30;;;;;;5113866;28;20713;-39
2022/04/26 04:49:09;;;;;;;1.30;1.20;;;9.90;92.30;;;;;;5104131;28;20202;-38
2022/04/26 04:51:37;;;;;;;1.00;0.97;;;10.00;91.70;;;;;;5103915;28;20209;-40
2022/04/26 04:54:04;;;;;;;1.30;1.20;;;10.00;91.60;;;;;;5113230;28;20206;-38
2022/04/26 04:56:32;;;;;;;0.87;0.87;;;10.00;91.50;;;;;;5107464;28;20241;-37
2022/04/26 04:59:00;;;;;;;0.87;0.87;;;10.00;91.40;;;;;;5113076;28;20200;-39
2022/04/26 05:01:28;;;;;;;0.93;0.93;;;10.00;91.40;;;;;;5113547;28;20197;-41
2022/04/26 05:03:55;;;;;;;1.13;1.10;;;10.10;91.40;;;;;;5105051;28;20186;-38
2022/04/26 05:06:22;;;;;;;1.00;1.00;;;10.10;91.30;;;;;;5106781;28;20219;-40
2022/04/26 05:08:49;;;;;;;1.10;1.00;;;10.10;91.20;;;;;;5113384;28;20204;-40
2022/04/26 05:11:16;;;;;;;1.77;1.30;;;10.20;91.10;;;;;;5112912;28;20732;-36
2022/04/26 05:13:44;;;;;;;1.57;1.20;;;10.30;91.00;;;;;;5111810;28;20202;-37
2022/04/26 05:16:13;;;;;;;1.97;1.37;;;10.30;90.80;;;;;;5107106;28;20187;-40
2022/04/26 05:18:40;;;;;;;1.10;1.10;;;10.40;90.80;;;;;;5113132;28;20189;-37
2022/04/26 05:21:08;;;;;;;1.10;1.10;;;10.40;90.70;;;;;;5110502;28;20791;-36
2022/04/26 05:26:20;;;;;;;1.70;1.60;;;10.50;90.20;;;;;;5112523;28;20705;-36
2022/04/26 05:28:48;;;;;;;1.63;1.30;;;10.50;90.00;;;;;;5111895;28;20297;-36
2022/04/26 05:31:16;;;;;;;1.80;1.27;;;10.50;89.90;;;;;;5111325;28;20204;-39
2022/04/26 05:33:44;;;;;;;1.33;1.20;;;10.50;89.70;;;;;;5109454;28;20194;-40
2022/04/26 05:36:11;;;;;;;1.50;1.40;;;10.50;89.50;;;;;;5105283;28;20585;-38
2022/04/26 05:38:38;;;;;;;1.30;1.20;;;10.60;89.60;;;;;;5110186;28;20208;-37
2022/04/26 05:41:05;;;;;;;1.43;1.40;;;10.50;89.30;;;;;;5111961;28;20195;-37
2022/04/26 05:43:33;;;;;;;1.40;1.30;;;10.60;89.30;;;;;;5112643;28;20223;-37
2022/04/26 05:46:00;;;;;;;1.20;1.10;;;10.60;89.00;;;;;;5112319;28;20317;-39
2022/04/26 05:48:29;;;;;;;2.13;1.70;;;10.70;89.50;;;;;;5110983;28;20248;-40
2022/04/26 05:50:57;;;;;;;1.77;1.67;;;10.70;88.30;;;;;;5110762;28;20681;-38
2022/04/26 05:53:24;;;;;;;4.67;2.20;;;10.70;87.80;;;;;;5112451;28;20193;-37
2022/04/26 05:55:51;;;;;;;1.70;1.60;;;10.80;87.60;;;;;;5111581;28;20232;-39
2022/04/26 05:58:20;;;;;;;1.60;1.50;;;10.80;87.50;;;;;;5112347;28;20685;-38
2022/04/26 06:00:47;;;;;;;3.47;2.37;;;10.90;87.40;;;;;;5111673;28;20189;-38
2022/04/26 06:03:15;;;;;;;2.50;2.30;;;10.90;86.70;;;;;;5110804;28;20600;-38
2022/04/26 06:05:43;;;;;;;3.07;2.03;;;11.00;86.40;;;;;;5104951;28;20341;-43
2022/04/26 06:08:11;;;;;;;3.23;1.60;;;11.10;86.50;;;;;;5096404;28;20212;-37
2022/04/26 06:10:39;;;;;;;3.70;1.70;;;11.10;86.50;;;;;;5104255;28;20822;-38
2022/04/26 06:13:08;;;;;;;1.50;1.40;;;11.20;86.40;;;;;;5111397;28;20600;-39
2022/04/26 06:15:35;;;;;;;1.13;1.10;;;11.20;86.10;;;;;;5104473;28;20198;-41
2022/04/26 06:18:02;;;;;;;3.13;2.10;;;11.30;85.90;;;;;;5108642;28;20287;-38
2022/04/26 06:20:29;;;;;;;2.63;1.93;;;11.30;85.30;;;;;;5103996;28;20665;-46
2022/04/26 06:22:58;;;;;;;1.60;1.50;;;11.40;84.90;;;;;;5109951;28;20205;-42
2022/04/26 06:25:25;;;;;;;1.40;1.30;;;11.50;84.60;;;;;;5105095;28;20229;-42
2022/04/26 06:27:52;;;;;;;1.33;1.30;;;11.50;84.60;;;;;;5111933;28;20659;-41
2022/04/26 06:30:19;;;;;;;1.30;1.20;;;11.60;84.40;;;;;;5109958;28;20281;-46
2022/04/26 06:32:46;;;;;;;3.53;1.30;;;11.60;84.20;;;;;;5103875;28;20192;-44
2022/04/26 06:35:14;;;;;;;2.10;1.73;;;11.70;84.00;;;;;;5106003;27;20756;-43
2022/04/26 06:37:41;;;;;;;3.17;1.60;;;11.70;83.40;;;;;;5110155;28;20528;-39
2022/04/26 06:40:10;;;;;;;1.50;1.40;;;11.80;83.30;;;;;;5110807;27;20209;-42
2022/04/26 06:42:37;;;;;;;2.10;1.37;;;11.90;83.30;;;;;;5111485;28;20728;-40
2022/04/26 06:45:05;;;;;;;2.67;1.30;;;12.00;83.20;;;;;;5108422;28;20352;-38
2022/04/26 06:47:32;;;;;;;1.50;1.40;;;12.10;83.10;;;;;;5111597;28;20351;-38
2022/04/26 06:50:00;;;;;;;1.67;1.40;;;12.10;82.80;;;;;;5109220;28;20214;-47
2022/04/26 06:52:28;;;;;;;1.60;1.37;;;12.20;82.50;;;;;;5102439;28;20192;-43
2022/04/26 06:54:55;;;;;;;2.90;1.80;;;12.30;82.30;;;;;;5109464;28;20630;-38
2022/04/26 06:57:24;;;;;;;1.60;1.40;;;12.30;81.60;;;;;;5111417;28;20197;-41
2022/04/26 06:59:51;;;;;;;3.77;1.90;;;12.40;81.10;;;;;;5109142;28;20188;-40
2022/04/26 07:02:20;;;;;;;5.37;1.83;;;12.50;80.90;;;;;;5104965;28;20199;-44
2022/04/26 07:04:47;;;;;;;1.57;1.47;;;12.60;80.60;;;;;;5108712;28;20703;-40
2022/04/26 07:07:14;;;;;;;4.10;1.80;;;12.70;80.30;;;;;;5105245;28;20672;-44
2022/04/26 07:09:41;;;;;;;6.53;2.27;;;12.80;79.90;;;;;;5110013;28;20560;-47
2022/04/26 07:12:09;;;;;;;1.93;1.70;;;12.80;79.00;;;;;;5109380;28;20208;-41
2022/04/26 07:14:37;;;;;;;16.03;2.73;;;12.90;78.70;;;;;;5101868;28;20220;-39
2022/04/26 07:17:05;;;;;;;6.00;2.10;;;12.90;77.90;;;;;;5106300;28;20187;-44
2022/04/26 07:19:35;;;;;;;7.43;2.13;;;13.00;77.50;;;;;;5102812;28;20191;-44
2022/04/26 07:22:03;;;;;;;1.60;1.50;;;13.10;76.30;;;;;;5110757;28;20243;-38
2022/04/26 07:24:31;;;;;;;7.00;1.63;;;13.10;76.40;;;;;;5103914;28;20537;-46
2022/04/26 07:26:58;;;;;;;1.50;1.40;;;13.20;76.30;;;;;;5109941;28;20212;-38
2022/04/26 07:29:25;;;;;;;4.17;1.87;;;13.30;76.30;;;;;;5109045;28;20195;-43
2022/04/26 07:31:53;;;;;;;3.10;1.33;;;13.30;75.10;;;;;;5107552;28;20632;-38
2022/04/26 07:34:23;;;;;;;3.00;1.67;;;13.40;75.00;;;;;;5096785;28;20803;-44
2022/04/26 07:36:52;;;;;;;1.33;1.23;;;13.50;74.40;;;;;;5110053;28;21505;-44
2022/04/26 07:39:20;;;;;;;3.93;1.87;;;13.60;74.00;;;;;;5109690;28;20203;-44
2022/04/26 07:41:47;;;;;;;2.17;1.23;;;13.60;72.10;;;;;;5109895;28;20208;-40
2022/04/26 07:44:16;;;;;;;2.97;1.47;;;13.70;72.20;;;;;;5109266;28;20200;-45
2022/04/26 07:46:45;;;;;;;2.10;1.40;;;13.80;72.50;;;;;;5109927;28;20342;-41
2022/04/26 07:49:14;;;;;;;1.50;1.20;;;14.00;71.50;;;;;;5108169;28;20204;-41
2022/04/26 07:51:42;;;;;;;1.27;1.10;;;14.00;70.30;;;;;;5101244;28;20196;-40
2022/04/26 07:54:10;;;;;;;1.40;1.30;;;14.10;69.70;;;;;;5109485;28;20201;-40
2022/04/26 07:56:37;;;;;;;0.80;0.80;;;14.10;69.10;;;;;;5107006;28;20229;-38
2022/04/26 07:59:05;;;;;;;2.30;1.50;;;14.20;68.70;;;;;;5106876;28;20594;-40
2022/04/26 08:01:32;;;;;;;1.60;1.50;;;14.30;67.70;;;;;;5109129;28;20595;-43
2022/04/26 08:03:59;;;;;;;4.73;1.30;;;14.40;66.90;;;;;;5090422;28;20301;-46
2022/04/26 08:06:29;;;;;;;2.97;1.60;;;14.40;66.10;;;;;;5104761;28;20221;-46
2022/04/26 08:08:58;;;;;;;2.50;1.47;;;14.50;65.60;;;;;;5109493;28;20194;-39
2022/04/26 08:11:25;;;;;;;1.20;1.10;;;14.50;64.20;;;;;;5109493;28;20205;-38
2022/04/26 08:13:53;;;;;;;1.20;1.10;;;14.60;63.30;;;;;;5108874;28;20658;-38
2022/04/26 08:16:20;;;;;;;1.17;1.07;;;14.70;60.70;;;;;;5108855;28;20268;-41
2022/04/26 08:18:47;;;;;;;0.80;0.80;;;14.80;60.40;;;;;;5108882;28;20727;-41
2022/04/26 08:21:15;;;;;;;0.90;0.90;;;14.90;60.70;;;;;;5105469;28;20204;-41
2022/04/26 08:29:18;;;;;;;0.87;0.87;;;15.10;60.30;;;;;;5096501;28;20198;-38
2022/04/26 08:31:45;;;;;;;0.97;0.97;;;15.30;61.00;;;;;;5107059;28;20244;-43
2022/04/26 08:34:12;;;;;;;1.00;1.00;;;15.50;61.60;;;;;;5107547;28;20199;-42
2022/04/26 08:36:39;;;;;;;1.07;0.90;;;15.60;61.30;;;;;;5108976;28;20188;-40
2022/04/26 08:39:08;;;;;;;1.47;0.90;;;15.70;60.30;;;;;;5108868;28;20195;-40
2022/04/26 08:41:35;;;;;;;0.80;0.80;;;15.70;59.40;;;;;;5108368;28;20589;-36
2022/04/26 08:44:09;;;;;;;0.57;0.57;;;15.80;59.30;;;;;;5097509;28;20795;-36
2022/04/26 08:52:07;;;;;;;0.90;0.90;;;16.10;59.30;;;;;;5102881;28;20187;-39
2022/04/26 08:54:35;;;;;;;4.00;1.10;;;16.30;59.00;;;;;;5107122;28;20231;-38
2022/04/26 08:57:03;;;;;;;1.57;1.00;;;16.50;58.50;;;;;;5095626;28;20220;-38
2022/04/26 08:59:31;;;;;;;0.70;0.70;;;16.70;58.20;;;;;;5106421;28;20249;-38
2022/04/26 09:02:18;;;;;;;0.70;0.70;;;16.80;57.90;;;;;;5108100;28;20334;-40
2022/04/26 09:04:45;;;;;;;0.73;0.73;;;16.90;57.50;;;;;;5106048;28;20279;-38
2022/04/26 09:07:13;;;;;;;1.90;1.00;;;17.00;57.30;;;;;;5101684;28;20207;-38
2022/04/26 09:09:42;;;;;;;0.80;0.80;;;17.10;56.30;;;;;;5108717;28;20200;-41
2022/04/26 09:12:12;;;;;;;0.80;0.80;;;17.20;55.30;;;;;;5106491;28;20660;-41
2022/04/26 09:14:47;;;;;;;0.80;0.80;;;17.20;55.00;;;;;;5101401;28;20986;-40
2022/04/26 09:17:17;;;;;;;0.80;0.80;;;17.30;54.90;;;;;;5103567;28;20206;-38
2022/04/26 09:19:48;;;;;;;0.90;0.60;;;17.30;54.60;;;;;;5096505;28;20195;-38
2022/04/26 09:22:19;;;;;;;1.07;0.70;;;17.40;54.70;;;;;;5106783;28;20184;-38
2022/04/26 09:24:59;;;;;;;0.73;0.73;;;17.50;54.50;;;;;;5110648;28;20198;-40
2022/04/26 09:27:29;;;;;;;0.90;0.90;;;17.50;54.00;;;;;;5111188;28;20205;-41
2022/04/26 09:29:56;;;;;;;0.70;0.70;;;17.60;52.90;;;;;;5109948;28;20270;-39
2022/04/26 09:32:24;;;;;;;0.60;0.60;;;17.60;52.50;;;;;;5112676;28;20205;-38
2022/04/26 09:34:51;;;;;;;0.70;0.70;;;17.60;52.20;;;;;;5110192;28;20625;-39
2022/04/26 09:37:19;;;;;;;2.13;0.60;;;17.70;51.80;;;;;;5112369;28;20616;-39
2022/04/26 09:40:05;;;;;;;1.00;0.90;;;17.70;51.60;;;;;;5096935;28;20205;-40
2022/04/26 09:42:33;;;;;;;1.00;1.00;;;17.70;50.10;;;;;;5108045;28;20281;-41
2022/04/26 09:45:06;;;;;;;1.07;0.70;;;17.70;50.00;;;;;;5109279;28;20206;-41
2022/04/26 09:47:36;;;;;;;1.00;0.80;;;17.70;49.80;;;;;;5111914;28;20241;-38
2022/04/26 09:50:06;;;;;;;3.03;1.30;;;17.70;49.30;;;;;;5106507;28;20213;-40
2022/04/26 09:52:33;;;;;;;0.80;0.80;;;17.70;48.40;;;;;;5107666;28;20253;-41
2022/04/26 09:55:01;;;;;;;1.80;1.10;;;17.80;48.30;;;;;;5111062;28;20245;-39
2022/04/26 09:57:33;;;;;;;1.17;1.03;;;17.80;47.70;;;;;;5108981;28;20223;-44
2022/04/26 10:00:01;;;;;;;1.40;1.00;;;17.80;46.10;;;;;;5101638;28;20436;-45
2022/04/26 10:02:38;;;;;;;1.00;0.90;;;17.70;44.80;;;;;;5110052;28;20185;-40
2022/04/26 10:05:07;;;;;;;0.70;0.70;;;17.70;46.00;;;;;;5109602;28;20241;-40
2022/04/26 10:07:44;;;;;;;1.37;1.10;;;17.70;46.30;;;;;;5111614;28;20223;-41
2022/04/26 10:10:13;;;;;;;1.20;1.10;;;17.80;45.30;;;;;;5110899;28;20198;-42
2022/04/26 10:13:31;;;;;;;1.37;1.07;;;17.80;43.70;;;;;;5107332;28;20280;-41
2022/04/26 10:15:30;;;;;;;1.20;1.03;;;17.70;43.60;;;;;;5102211;28;20201;-44
2022/04/26 10:17:57;;;;;;;0.60;0.60;;;17.70;43.40;;;;;;5110067;28;20287;-45
2022/04/26 10:20:40;;;;;;;0.83;0.80;;;17.80;44.50;;;;;;5109449;28;20285;-42
2022/04/26 10:23:07;;;;;;;0.73;0.67;;;17.90;44.70;;;;;;5110895;27;20209;-47
2022/04/26 10:25:34;;;;;;;0.60;0.60;;;18.00;44.80;;;;;;5110714;28;20552;-43
2022/04/26 10:28:26;;;;;;;0.70;0.70;;;18.20;45.30;;;;;;5096058;28;20586;-42
2022/04/26 10:30:55;;;;;;;0.95;0.85;;;18.30;45.30;;;;;;5104645;28;20206;-38
2022/04/26 10:33:40;;;;;;;2.07;0.80;;;18.40;44.70;;;;;;5102689;28;20275;-41
2022/04/26 10:36:35;;;;;;;0.70;0.70;;;18.50;44.50;;;;;;5103285;28;20186;-40
2022/04/26 10:39:24;;;;;;;0.80;0.80;;;18.50;44.40;;;;;;5053269;28;20622;-38
2022/04/26 10:41:51;;;;;;;1.17;1.10;;;18.60;43.40;;;;;;5091000;28;20290;-40
2022/04/26 10:44:28;;;;;;;1.00;1.00;;;18.60;41.70;;;;;;5109658;28;20225;-42
2022/04/26 10:47:35;;;;;;;0.80;0.80;;;18.50;41.80;;;;;;5114588;27;20578;-45
2022/04/26 10:50:03;;;;;;;0.60;0.60;;;18.70;42.60;;;;;;5106302;28;20490;-37
2022/04/26 10:52:44;;;;;;;0.80;0.80;;;18.80;42.50;;;;;;5105850;28;20195;-43
2022/04/26 10:55:27;;;;;;;0.75;0.75;;;18.80;41.20;;;;;;5102682;28;20565;-41
2022/04/26 10:57:55;;;;;;;1.38;0.82;;;18.80;41.30;;;;;;5109832;28;20196;-44
2022/04/26 11:00:38;;;;;;;0.70;0.70;;;19.00;41.60;;;;;;5109936;28;20231;-41
2022/04/26 11:03:08;;;;;;;0.73;0.70;;;19.10;41.50;;;;;;5108708;28;20191;-38
2022/04/26 11:05:36;;;;;;;2.38;1.00;;;19.10;41.40;;;;;;5108957;28;20212;-43
2022/04/26 11:08:06;;;;;;;1.10;1.00;;;19.20;40.30;;;;;;5101661;28;20431;-40
2022/04/26 11:13:37;;;;;;;0.77;0.77;;;19.20;40.10;;;;;;5107207;28;20283;-41
2022/04/26 11:16:13;;;;;;;0.70;0.70;;;19.20;40.50;;;;;;5098142;28;20195;-43
2022/04/26 11:18:42;;;;;;;0.90;0.90;;;19.20;40.20;;;;;;5109587;28;20195;-38
2022/04/26 11:21:12;;;;;;;0.60;0.60;;;19.20;39.80;;;;;;5109167;28;20204;-39
2022/04/26 11:29:26;;;;;;;1.50;1.40;;;19.30;39.20;;;;;;5107661;28;20706;-41
2022/04/26 11:31:55;;;;;;;1.15;1.08;;;19.20;38.60;;;;;;5107554;28;20604;-40
2022/04/26 11:34:43;;;;;;;1.10;1.10;;;19.30;39.30;;;;;;5107664;28;20199;-41
2022/04/26 11:37:13;;;;;;;0.82;0.82;;;19.40;39.70;;;;;;5099347;28;20192;-40
2022/04/26 11:39:42;;;;;;;0.80;0.80;;;19.50;40.40;;;;;;5108675;28;20208;-45
2022/04/26 11:42:09;;;;;;;1.00;0.95;;;19.60;39.70;;;;;;5099290;28;20602;-46
2022/04/26 11:44:37;;;;;;;0.90;0.90;;;19.60;38.40;;;;;;5104524;28;20655;-40
2022/04/26 11:47:12;;;;;;;0.90;0.90;;;19.60;38.20;;;;;;5096571;28;20192;-44
2022/04/26 11:49:40;;;;;;;0.95;0.80;;;19.60;38.70;;;;;;5105251;28;20284;-41
2022/04/26 11:52:08;;;;;;;0.85;0.85;;;19.60;38.20;;;;;;5097361;28;20205;-44
2022/04/26 11:54:35;;;;;;;1.20;1.20;;;19.60;37.90;;;;;;5105803;28;20294;-44
2022/04/26 11:57:04;;;;;;;1.05;0.98;;;19.60;37.20;;;;;;5109900;28;20219;-38
2022/04/26 11:59:34;;;;;;;1.08;1.08;;;19.60;35.70;;;;;;5093105;28;20196;-40
2022/04/26 12:02:01;;;;;;;6.05;1.30;;;19.50;36.00;;;;;;5104054;27;20532;-42
2022/04/26 12:04:30;;;;;;;1.73;1.27;;;19.50;36.70;;;;;;5103515;28;20660;-37
2022/04/26 12:07:00;;;;;;;0.77;0.77;;;19.40;36.10;;;;;;5103711;28;20255;-36
2022/04/26 12:09:28;;;;;;;1.20;1.10;;;19.50;36.80;;;;;;5106191;28;20690;-37
2022/04/26 12:12:03;;;;;;;1.10;0.95;;;19.40;36.50;;;;;;5102631;28;20227;-38
2022/04/26 12:14:30;;;;;;;0.90;0.90;;;19.60;37.00;;;;;;5108381;28;20282;-38
2022/04/26 12:16:59;;;;;;;0.60;0.60;;;19.60;37.00;;;;;;5109297;28;20219;-38
2022/04/26 12:19:39;;;;;;;0.68;0.68;;;19.70;37.20;;;;;;5107572;28;20863;-37
2022/04/26 12:22:06;;;;;;;0.90;0.90;;;19.80;37.40;;;;;;5109827;28;20195;-37
2022/04/26 12:24:34;;;;;;;0.80;0.80;;;19.90;37.30;;;;;;5108404;28;20283;-37
2022/04/26 12:27:03;;;;;;;0.80;0.80;;;19.90;36.80;;;;;;5100463;28;20212;-38
2022/04/26 12:29:32;;;;;;;0.73;0.73;;;19.90;36.90;;;;;;5106459;28;20294;-37
2022/04/26 12:31:59;;;;;;;0.80;0.80;;;20.00;37.20;;;;;;5109225;28;20219;-37
2022/04/26 12:34:30;;;;;;;1.27;1.00;;;20.00;37.10;;;;;;5106433;28;20558;-37
2022/04/26 12:37:00;;;;;;;0.98;0.98;;;20.10;36.70;;;;;;5108902;28;20563;-37
2022/04/26 12:39:40;;;;;;;0.77;0.77;;;20.10;36.60;;;;;;5108662;28;20202;-38
2022/04/26 12:42:08;;;;;;;0.70;0.70;;;20.10;36.70;;;;;;5098794;28;20191;-39
2022/04/26 12:44:37;;;;;;;1.10;1.00;;;20.10;36.60;;;;;;5093893;28;20272;-38
2022/04/26 12:52:54;;;;;;;1.00;1.00;;;20.20;36.20;;;;;;5110593;28;20188;-37
2022/04/26 12:55:29;;;;;;;0.70;0.70;;;20.20;36.20;;;;;;5112340;28;20228;-45
2022/04/26 12:57:58;;;;;;;0.70;0.70;;;20.20;36.40;;;;;;5112999;28;20192;-45
2022/04/26 13:00:27;;;;;;;1.10;0.95;;;20.30;36.50;;;;;;5102729;28;20199;-41
2022/04/26 13:02:57;;;;;;;0.63;0.63;;;20.30;36.70;;;;;;5109610;28;20303;-47
2022/04/26 13:05:24;;;;;;;0.70;0.70;;;20.30;36.60;;;;;;5104087;28;20216;-44
2022/04/26 13:07:53;;;;;;;0.85;0.85;;;20.30;36.90;;;;;;5104204;28;20204;-44
2022/04/26 13:10:22;;;;;;;1.10;1.00;;;20.30;36.40;;;;;;5093076;28;20192;-42
2022/04/26 13:12:49;;;;;;;0.95;0.95;;;20.20;36.50;;;;;;5110903;28;20242;-44
2022/04/26 13:15:16;;;;;;;1.05;0.93;;;20.10;36.20;;;;;;5111743;28;20299;-42
2022/04/26 13:17:45;;;;;;;1.00;1.00;;;20.10;36.50;;;;;;5110022;28;20231;-40
2022/04/26 13:20:12;;;;;;;1.10;0.90;;;20.10;36.50;;;;;;5110132;28;20198;-46
2022/04/26 13:22:40;;;;;;;1.60;0.95;;;20.10;36.70;;;;;;5112668;28;20593;-41
2022/04/26 13:25:10;;;;;;;1.05;0.90;;;20.20;36.20;;;;;;5108953;28;20200;-44
2022/04/26 13:27:38;;;;;;;0.80;0.80;;;20.10;36.20;;;;;;5112856;28;20283;-45
2022/04/26 13:30:07;;;;;;;0.70;0.70;;;20.00;36.20;;;;;;5107984;28;20648;-41
2022/04/26 13:32:35;;;;;;;1.00;1.00;;;20.00;36.00;;;;;;5111604;28;20200;-42
2022/04/26 13:35:05;;;;;;;0.95;0.90;;;20.00;36.30;;;;;;5110390;28;20244;-42
2022/04/26 13:37:32;;;;;;;1.00;1.00;;;20.00;36.60;;;;;;5112333;28;20264;-44
2022/04/26 13:40:01;;;;;;;0.90;0.90;;;19.90;36.90;;;;;;5094743;28;20212;-39
2022/04/26 13:42:31;;;;;;;0.65;0.65;;;19.90;37.20;;;;;;5104634;28;20200;-42
2022/04/26 13:44:59;;;;;;;0.70;0.70;;;19.90;37.50;;;;;;5111090;28;20234;-44
2022/04/26 13:47:27;;;;;;;0.88;0.85;;;19.90;37.40;;;;;;5101677;28;20200;-45
2022/04/26 13:49:54;;;;;;;0.90;0.90;;;19.90;37.20;;;;;;5109827;28;20257;-43
2022/04/26 13:52:22;;;;;;;0.70;0.70;;;19.80;37.50;;;;;;5098061;28;20200;-38
2022/04/26 13:54:49;;;;;;;0.70;0.70;;;19.80;37.90;;;;;;5105755;28;20532;-41
2022/04/26 13:57:17;;;;;;;1.40;0.90;;;19.70;38.10;;;;;;5112390;28;20276;-42
2022/04/26 13:59:46;;;;;;;0.90;0.90;;;19.70;38.00;;;;;;5110923;28;20219;-40
2022/04/26 14:02:14;;;;;;;0.90;0.90;;;19.70;38.30;;;;;;5104985;28;20195;-40
2022/04/26 14:04:42;;;;;;;0.80;0.80;;;19.60;38.50;;;;;;5107153;28;20202;-38
2022/04/26 14:07:09;;;;;;;0.90;0.90;;;19.60;38.70;;;;;;5103865;28;20196;-38
2022/04/26 14:09:36;;;;;;;0.73;0.73;;;19.50;38.20;;;;;;5111662;28;20663;-47
2022/04/26 14:12:04;;;;;;;0.80;0.80;;;19.50;38.50;;;;;;5109967;28;20215;-43
2022/04/26 14:22:47;;;;;;;1.20;1.10;;;19.40;38.50;;;;;;5112057;28;20328;-41
2022/04/26 14:25:14;;;;;;;0.80;0.80;;;19.20;39.10;;;;;;5111078;28;20600;-43
2022/04/26 14:27:43;;;;;;;1.42;1.15;;;19.20;38.70;;;;;;5112025;28;20548;-41
2022/04/26 14:30:12;;;;;;;1.40;1.10;;;19.10;38.80;;;;;;5107796;28;20208;-38
2022/04/26 14:32:41;;;;;;;1.08;1.02;;;19.10;38.90;;;;;;5111371;28;20276;-39
2022/04/26 14:35:09;;;;;;;1.08;1.08;;;19.10;38.90;;;;;;5109817;28;20195;-42
2022/04/26 14:37:36;;;;;;;0.80;0.80;;;19.00;38.80;;;;;;5111772;28;20272;-46
2022/04/26 14:40:04;;;;;;;1.08;0.90;;;19.00;39.00;;;;;;5111367;28;20274;-44
2022/04/26 14:42:32;;;;;;;1.00;1.00;;;19.00;39.00;;;;;;5112418;28;20225;-44
2022/04/26 14:44:59;;;;;;;1.00;1.00;;;19.00;38.80;;;;;;5103147;28;20192;-41
2022/04/26 14:47:27;;;;;;;0.93;0.93;;;18.90;38.80;;;;;;5111060;28;20203;-38
2022/04/26 14:49:57;;;;;;;0.85;0.85;;;18.90;38.80;;;;;;5109164;28;20643;-44
2022/04/26 14:52:24;;;;;;;0.70;0.70;;;18.90;38.80;;;;;;5105141;28;20242;-40
2022/04/26 14:54:52;;;;;;;0.88;0.88;;;18.80;38.50;;;;;;5107276;28;20250;-46
2022/04/26 14:57:19;;;;;;;0.77;0.77;;;18.90;38.60;;;;;;5105477;28;20196;-40
2022/04/26 14:59:47;;;;;;;0.70;0.70;;;18.90;38.80;;;;;;5106969;28;20241;-40
2022/04/26 15:02:16;;;;;;;0.82;0.73;;;18.90;38.70;;;;;;5111558;28;20199;-41
2022/04/26 15:04:44;;;;;;;1.05;1.00;;;18.90;38.60;;;;;;5109181;28;20299;-39
2022/04/26 15:07:13;;;;;;;0.90;0.90;;;18.90;38.20;;;;;;5111281;28;20284;-43
2022/04/26 15:09:47;;;;;;;0.93;0.70;;;18.80;38.20;;;;;;5110751;28;20204;-38
2022/04/26 15:17:48;;;;;;;0.90;0.90;;;18.70;38.80;;;;;;5109025;28;20355;-37
2022/04/26 15:20:16;;;;;;;0.75;0.75;;;18.60;38.80;;;;;;5107151;28;20196;-37
2022/04/26 15:22:46;;;;;;;0.90;0.90;;;18.60;38.80;;;;;;5111005;28;20195;-37
2022/04/26 15:25:15;;;;;;;1.15;0.82;;;18.50;38.90;;;;;;5108245;28;20563;-37
2022/04/26 15:27:42;;;;;;;0.80;0.80;;;18.50;39.00;;;;;;5110895;28;20305;-39
2022/04/26 15:30:12;;;;;;;0.80;0.80;;;18.40;38.90;;;;;;5105141;28;20207;-46
2022/04/26 15:32:39;;;;;;;0.70;0.70;;;18.30;39.00;;;;;;5102482;28;20259;-39
2022/04/26 15:35:09;;;;;;;1.75;1.08;;;18.30;39.10;;;;;;5108868;28;20192;-42
2022/04/26 15:37:36;;;;;;;0.85;0.85;;;18.30;38.90;;;;;;5110804;28;20273;-39
2022/04/26 15:40:06;;;;;;;0.73;0.73;;;18.20;39.00;;;;;;5110097;28;20664;-45
2022/04/26 15:42:33;;;;;;;2.47;1.00;;;18.00;39.20;;;;;;5096506;28;20204;-43
2022/04/26 15:45:01;;;;;;;1.17;0.83;;;17.90;39.30;;;;;;5103952;28;20227;-39
2022/04/26 15:47:29;;;;;;;1.25;1.10;;;17.80;39.60;;;;;;5103895;28;20199;-44
2022/04/26 15:49:57;;;;;;;0.85;0.85;;;17.80;39.90;;;;;;5105235;28;20222;-41
2022/04/26 15:52:25;;;;;;;0.90;0.90;;;17.70;40.30;;;;;;5110701;28;20207;-43
2022/04/26 15:54:52;;;;;;;0.68;0.68;;;17.60;40.60;;;;;;5109351;28;20191;-43
2022/04/26 15:57:21;;;;;;;2.03;0.70;;;17.50;40.70;;;;;;5110571;28;20199;-43
2022/04/26 15:59:48;;;;;;;1.30;1.10;;;17.50;41.00;;;;;;5108912;28;20190;-42
2022/04/26 16:02:16;;;;;;;1.20;1.20;;;17.50;41.20;;;;;;5105111;28;20206;-45
2022/04/26 16:04:44;;;;;;;1.20;1.20;;;17.40;41.20;;;;;;5089776;28;20211;-42
2022/04/26 16:07:11;;;;;;;1.20;1.02;;;17.40;41.30;;;;;;5106131;28;20195;-44
2022/04/26 16:20:37;;;;;;;1.77;1.03;;;17.20;41.60;;;;;;5108031;28;20194;-44
2022/04/26 16:23:06;;;;;;;0.90;0.90;;;17.10;41.80;;;;;;5110395;28;20225;-44
2022/04/26 16:25:34;;;;;;;0.80;0.80;;;17.00;41.90;;;;;;5109441;28;20234;-39
2022/04/26 16:28:03;;;;;;;1.57;1.47;;;17.10;42.20;;;;;;5114350;27;20704;-39
2022/04/26 16:30:31;;;;;;;6.55;2.00;;;17.00;42.80;;;;;;5103045;28;20754;-42
2022/04/26 16:32:59;;;;;;;2.37;2.07;;;16.90;43.80;;;;;;5107245;28;20238;-47
2022/04/26 16:35:26;;;;;;;7.00;2.47;;;16.90;44.30;;;;;;5112600;28;20211;-42
2022/04/26 16:37:54;;;;;;;5.90;2.70;;;16.80;44.80;;;;;;5114069;28;20200;-44
2022/04/26 16:40:22;;;;;;;3.17;1.80;;;16.80;46.20;;;;;;5113092;28;20280;-42
2022/04/26 16:42:50;;;;;;;2.13;1.90;;;16.70;46.40;;;;;;5114003;28;20225;-39
2022/04/26 16:45:18;;;;;;;4.13;2.27;;;16.60;46.80;;;;;;5113369;28;20200;-42
2022/04/26 16:47:45;;;;;;;2.90;1.47;;;16.50;47.40;;;;;;5103830;28;20198;-41
2022/04/26 16:50:12;;;;;;;2.87;1.53;;;16.50;47.60;;;;;;5110594;28;20732;-42
2022/04/26 16:52:43;;;;;;;4.33;1.93;;;16.40;47.90;;;;;;5109858;28;20205;-40
2022/04/26 16:55:10;;;;;;;2.57;1.93;;;16.20;48.30;;;;;;5112930;28;20229;-42
2022/04/26 16:57:38;;;;;;;2.90;1.73;;;16.40;49.10;;;;;;5109777;28;20246;-38
2022/04/26 17:00:06;;;;;;;2.73;1.77;;;16.30;49.10;;;;;;5113117;28;20185;-40
2022/04/26 17:02:35;;;;;;;4.13;1.87;;;16.30;49.60;;;;;;5112512;28;20207;-40
2022/04/26 17:05:02;;;;;;;2.07;1.80;;;16.30;49.80;;;;;;5111788;28;20655;-43
2022/04/26 17:07:29;;;;;;;1.67;1.57;;;16.30;50.20;;;;;;5105498;28;20218;-42
2022/04/26 17:09:56;;;;;;;2.63;2.10;;;16.20;50.40;;;;;;5113071;28;20269;-39
2022/04/26 17:12:26;;;;;;;3.50;1.80;;;16.20;51.00;;;;;;5112478;28;20191;-39
2022/04/26 17:14:54;;;;;;;3.07;1.83;;;16.20;51.30;;;;;;5104928;28;20196;-38
2022/04/26 17:17:21;;;;;;;1.90;1.60;;;16.10;51.40;;;;;;5108607;28;20551;-43
2022/04/26 17:19:50;;;;;;;1.70;1.60;;;16.10;51.60;;;;;;5110113;28;20207;-42
2022/04/26 17:22:17;;;;;;;2.57;1.47;;;16.00;51.80;;;;;;5112812;28;20206;-38
2022/04/26 17:27:29;;;;;;;4.87;1.83;;;16.00;52.20;;;;;;5113420;28;20554;-40
2022/04/26 17:29:56;;;;;;;3.80;2.00;;;16.00;52.30;;;;;;5110014;28;20304;-39